createdAt,value
2023-04-02T00:01:02.498Z,1.60
2023-04-02T00:03:45.066Z,2.00
2023-04-02T00:06:15.412Z,1.70
2023-04-02T00:08:42.939Z,1.43
2023-04-02T00:11:10.762Z,1.33
2023-04-02T00:13:41.338Z,1.20
2023-04-02T00:16:08.849Z,1.20
2023-04-02T00:18:36.409Z,0.97
2023-04-02T00:21:09.614Z,1.10
2023-04-02T00:23:37.139Z,1.03
2023-04-02T00:26:04.694Z,0.67
2023-04-02T00:28:32.235Z,0.90
2023-04-02T00:30:59.780Z,1.30
2023-04-02T00:33:27.381Z,1.10
2023-04-02T00:35:54.906Z,1.10
2023-04-02T00:38:25.078Z,0.90
2023-04-02T00:40:52.643Z,1.00
2023-04-02T00:43:20.178Z,0.93
2023-04-02T00:45:47.914Z,1.07
2023-04-02T00:48:21.261Z,0.83
2023-04-02T00:50:48.806Z,0.80
2023-04-02T00:53:16.310Z,0.70
2023-04-02T00:55:43.889Z,0.80
2023-04-02T00:58:29.261Z,0.70
2023-04-02T01:00:56.879Z,0.70
2023-04-02T01:03:36.401Z,0.70
2023-04-02T01:06:03.466Z,0.53
2023-04-02T01:08:58.214Z,0.90
2023-04-02T01:11:37.475Z,0.57
2023-04-02T01:14:22.911Z,0.77
2023-04-02T01:16:50.476Z,0.60
2023-04-02T01:19:41.582Z,0.53
2023-04-02T01:22:11.892Z,0.70
2023-04-02T01:24:39.429Z,0.90
2023-04-02T01:27:12.671Z,0.80
2023-04-02T01:29:43.003Z,0.70
2023-04-02T01:32:13.008Z,0.70
2023-04-02T01:34:40.553Z,0.70
2023-04-02T01:37:31.880Z,0.70
2023-04-02T01:40:17.397Z,0.93
2023-04-02T01:42:53.696Z,0.80
2023-04-02T01:45:21.229Z,0.80
2023-04-02T01:47:49.009Z,0.70
2023-04-02T01:50:34.547Z,0.90
2023-04-02T01:53:02.089Z,0.67
2023-04-02T01:55:41.401Z,1.00
2023-04-02T01:58:08.940Z,0.73
2023-04-02T02:00:36.505Z,0.83
2023-04-02T02:03:04.062Z,0.80
2023-04-02T02:05:31.585Z,1.05
2023-04-02T02:07:59.119Z,0.60
2023-04-02T02:10:26.674Z,1.00
2023-04-02T02:12:54.264Z,0.70
2023-04-02T02:15:21.768Z,0.80
2023-04-02T02:17:49.367Z,0.70
2023-04-02T02:20:16.883Z,0.50
2023-04-02T02:22:44.410Z,0.93
2023-04-02T02:25:12.057Z,0.70
2023-04-02T02:27:42.453Z,0.80
2023-04-02T02:30:16.106Z,1.10
2023-04-02T02:32:43.692Z,0.90
2023-04-02T02:35:17.288Z,1.00
2023-04-02T02:37:44.814Z,1.30
2023-04-02T02:40:12.378Z,0.90
2023-04-02T02:42:39.921Z,0.90
2023-04-02T02:45:07.534Z,0.90
2023-04-02T02:47:35.105Z,1.00
2023-04-02T02:50:02.639Z,0.87
2023-04-02T02:52:32.586Z,1.07
2023-04-02T02:55:09.378Z,0.90
2023-04-02T02:57:36.902Z,1.00
2023-04-02T03:00:04.445Z,1.67
2023-04-02T03:02:33.091Z,1.80
2023-04-02T03:05:00.551Z,1.50
2023-04-02T03:07:28.083Z,0.90
2023-04-02T03:09:58.377Z,1.50
2023-04-02T03:12:46.674Z,1.07
2023-04-02T03:15:44.232Z,1.43
2023-04-02T03:18:11.735Z,1.92
2023-04-02T03:20:48.089Z,1.30
2023-04-02T03:23:19.978Z,1.63
2023-04-02T03:25:51.835Z,1.30
2023-04-02T03:28:22.029Z,1.60
2023-04-02T03:30:55.612Z,1.90
2023-04-02T03:33:26.050Z,2.13
2023-04-02T03:35:56.534Z,2.60
2023-04-02T03:38:29.922Z,1.80
2023-04-02T03:41:21.448Z,1.57
2023-04-02T03:43:51.904Z,1.53
2023-04-02T03:46:28.636Z,1.57
2023-04-02T03:48:56.079Z,1.60
2023-04-02T03:51:53.517Z,1.33
2023-04-02T03:54:21.042Z,1.20
2023-04-02T03:56:48.592Z,1.23
2023-04-02T03:59:27.791Z,1.10
2023-04-02T04:02:06.983Z,1.40
2023-04-02T04:04:34.577Z,1.40
2023-04-02T04:07:02.028Z,1.17
2023-04-02T04:09:38.077Z,0.97
2023-04-02T04:12:29.284Z,0.90
2023-04-02T04:15:08.494Z,0.85
2023-04-02T04:17:54.313Z,0.90
2023-04-02T04:20:24.370Z,0.90
2023-04-02T04:22:51.896Z,0.70
2023-04-02T04:25:19.428Z,0.73
2023-04-02T04:28:04.729Z,0.87
2023-04-02T04:30:46.726Z,1.10
2023-04-02T04:33:23.230Z,0.90
2023-04-02T04:35:53.666Z,0.50
2023-04-02T04:38:33.060Z,0.80
2023-04-02T04:41:06.268Z,0.87
2023-04-02T04:43:49.046Z,0.90
2023-04-02T04:46:31.380Z,1.00
2023-04-02T04:49:16.981Z,0.97
2023-04-02T04:51:47.330Z,0.90
2023-04-02T04:54:14.857Z,0.90
2023-04-02T04:56:42.431Z,1.50
2023-04-02T04:59:24.764Z,0.90
2023-04-02T05:02:06.940Z,1.37
2023-04-02T05:04:37.093Z,1.10
2023-04-02T05:07:07.523Z,1.30
2023-04-02T05:09:40.746Z,1.03
2023-04-02T05:12:16.964Z,1.10
2023-04-02T05:14:50.182Z,1.20
2023-04-02T05:17:17.707Z,1.50
2023-04-02T05:19:51.096Z,1.60
2023-04-02T05:22:18.652Z,1.60
2023-04-02T05:25:09.858Z,1.80
2023-04-02T05:27:40.129Z,3.60
2023-04-02T05:30:13.430Z,4.57
2023-04-02T05:32:43.925Z,3.10
2023-04-02T05:35:11.430Z,2.20
2023-04-02T05:37:38.962Z,2.13
2023-04-02T05:40:06.539Z,2.10
2023-04-02T05:42:34.069Z,3.03
2023-04-02T05:45:16.742Z,2.63
2023-04-02T05:47:45.894Z,2.30
2023-04-02T05:50:11.785Z,2.53
2023-04-02T05:52:48.367Z,2.37
2023-04-02T05:55:27.591Z,2.33
2023-04-02T05:58:14.184Z,2.57
2023-04-02T06:00:40.395Z,2.27
2023-04-02T06:03:26.326Z,2.83
2023-04-02T06:05:53.815Z,3.03
2023-04-02T06:08:21.350Z,3.30
2023-04-02T06:11:06.534Z,2.93
2023-04-02T06:13:34.066Z,3.37
2023-04-02T06:16:01.579Z,3.37
2023-04-02T06:18:32.073Z,3.50
2023-04-02T06:20:59.612Z,3.60
2023-04-02T06:23:44.724Z,3.20
2023-04-02T06:26:26.676Z,2.70
2023-04-02T06:29:11.807Z,3.87
2023-04-02T06:31:49.422Z,3.23
2023-04-02T06:34:15.477Z,3.67
2023-04-02T06:36:43.077Z,3.63
2023-04-02T06:39:10.606Z,4.30
2023-04-02T06:41:38.153Z,3.90
2023-04-02T06:44:11.200Z,3.63
2023-04-02T06:46:38.750Z,3.53
2023-04-02T06:49:20.903Z,3.40
2023-04-02T06:51:48.425Z,3.50
2023-04-02T06:54:15.931Z,3.77
2023-04-02T06:56:48.967Z,3.87
2023-04-02T06:59:16.425Z,4.10
2023-04-02T07:01:49.433Z,3.90
2023-04-02T07:04:17.283Z,3.33
2023-04-02T07:06:44.768Z,3.27
2023-04-02T07:09:12.314Z,3.77
2023-04-02T07:11:39.891Z,3.47
2023-04-02T07:14:07.433Z,3.50
2023-04-02T07:16:34.968Z,3.33
2023-04-02T07:19:02.544Z,3.23
2023-04-02T07:21:30.070Z,3.30
2023-04-02T07:23:57.606Z,3.13
2023-04-02T07:26:25.192Z,3.33
2023-04-02T07:28:52.739Z,3.78
2023-04-02T07:31:25.728Z,3.20
2023-04-02T07:33:59.169Z,3.67
2023-04-02T07:36:26.723Z,3.30
2023-04-02T07:38:54.249Z,3.23
2023-04-02T07:41:21.827Z,2.73
2023-04-02T07:43:49.363Z,3.10
2023-04-02T07:46:16.962Z,2.80
2023-04-02T07:48:44.451Z,2.73
2023-04-02T07:51:17.770Z,2.70
2023-04-02T07:53:45.273Z,2.57
2023-04-02T07:56:12.845Z,2.30
2023-04-02T07:58:40.371Z,2.97
2023-04-02T08:01:07.884Z,2.20
2023-04-02T08:03:35.578Z,2.30
2023-04-02T08:06:03.001Z,2.30
2023-04-02T08:08:30.535Z,2.73
2023-04-02T08:10:58.103Z,1.93
2023-04-02T08:13:25.640Z,2.70
2023-04-02T08:15:53.206Z,2.70
2023-04-02T08:18:20.746Z,1.70
2023-04-02T08:20:48.277Z,1.73
2023-04-02T08:23:15.819Z,1.60
2023-04-02T08:25:43.390Z,1.85
2023-04-02T08:28:10.926Z,1.30
2023-04-02T08:30:38.460Z,1.27
2023-04-02T08:33:06.059Z,2.00
2023-04-02T08:35:33.827Z,1.47
2023-04-02T08:38:01.064Z,1.53
2023-04-02T08:40:37.324Z,1.33
2023-04-02T08:43:23.747Z,1.30
2023-04-02T08:46:02.630Z,0.97
2023-04-02T08:48:30.238Z,1.30
2023-04-02T08:50:57.760Z,1.07
2023-04-02T08:53:28.271Z,1.40
2023-04-02T08:56:14.071Z,1.40
2023-04-02T08:58:44.026Z,1.20
2023-04-02T09:01:11.554Z,1.00
2023-04-02T09:03:41.781Z,1.30
2023-04-02T09:06:09.302Z,1.30
2023-04-02T09:08:36.823Z,1.30
2023-04-02T09:11:12.847Z,1.50
2023-04-02T09:13:40.385Z,1.00
2023-04-02T09:16:10.669Z,0.93
2023-04-02T09:18:38.288Z,1.00
2023-04-02T09:21:08.653Z,0.80
2023-04-02T09:23:36.177Z,1.17
2023-04-02T09:26:04.894Z,1.00
2023-04-02T09:28:31.268Z,1.40
2023-04-02T09:31:14.097Z,1.07
2023-04-02T09:33:41.571Z,0.77
2023-04-02T09:36:09.159Z,1.00
2023-04-02T09:38:36.677Z,1.20
2023-04-02T09:41:06.909Z,0.90
2023-04-02T09:43:34.410Z,0.83
2023-04-02T09:46:01.983Z,1.30
2023-04-02T09:48:40.863Z,1.10
2023-04-02T09:51:14.313Z,0.90
2023-04-02T09:53:47.982Z,0.80
2023-04-02T09:56:15.505Z,0.70
2023-04-02T09:58:43.075Z,0.80
2023-04-02T10:01:19.043Z,0.83
2023-04-02T10:03:46.593Z,1.00
2023-04-02T10:06:14.116Z,0.97
2023-04-02T10:08:44.396Z,0.80
2023-04-02T10:11:14.607Z,0.60
2023-04-02T10:13:57.005Z,0.90
2023-04-02T10:16:25.770Z,1.00
2023-04-02T10:18:52.104Z,0.80
2023-04-02T10:21:22.394Z,0.80
2023-04-02T10:23:49.936Z,1.10
2023-04-02T10:26:38.983Z,0.87
2023-04-02T10:29:24.670Z,0.90
2023-04-02T10:31:54.948Z,1.00
2023-04-02T10:34:22.495Z,0.70
2023-04-02T10:36:53.032Z,0.85
2023-04-02T10:39:41.527Z,0.83
2023-04-02T10:42:12.125Z,0.80
2023-04-02T10:44:57.793Z,0.77
2023-04-02T10:47:42.927Z,1.00
2023-04-02T10:50:40.438Z,0.80
2023-04-02T10:53:16.925Z,0.80
2023-04-02T10:55:44.459Z,0.60
2023-04-02T10:58:17.763Z,0.70
2023-04-02T11:00:45.311Z,0.80
2023-04-02T11:03:24.691Z,0.68
2023-04-02T11:05:52.038Z,0.70
2023-04-02T11:08:40.193Z,0.60
2023-04-02T11:11:10.656Z,0.70
2023-04-02T11:13:43.744Z,1.40
2023-04-02T11:16:14.339Z,0.40
2023-04-02T11:18:41.796Z,0.57
2023-04-02T11:21:27.605Z,0.60
2023-04-02T11:23:58.067Z,0.53
2023-04-02T11:26:40.727Z,0.40
2023-04-02T11:29:14.007Z,0.60
2023-04-02T11:31:41.595Z,0.63
2023-04-02T11:34:27.278Z,0.53
2023-04-02T11:36:55.094Z,0.60
2023-04-02T11:39:46.666Z,0.53
2023-04-02T11:42:19.932Z,0.50
2023-04-02T11:44:47.456Z,0.40
2023-04-02T11:47:15.002Z,0.57
2023-04-02T11:50:03.468Z,0.53
2023-04-02T11:52:36.338Z,0.68
2023-04-02T11:55:06.617Z,0.63
2023-04-02T11:57:52.150Z,0.60
2023-04-02T12:00:56.133Z,0.80
2023-04-02T12:03:39.043Z,0.53
2023-04-02T12:06:06.580Z,0.60
2023-04-02T12:08:47.507Z,0.80
2023-04-02T12:11:07.064Z,0.70
2023-04-02T12:13:40.335Z,0.70
2023-04-02T12:16:11.582Z,0.60
2023-04-02T12:18:44.909Z,0.60
2023-04-02T12:21:12.425Z,0.60
2023-04-02T12:23:39.999Z,0.70
2023-04-02T12:26:07.584Z,0.60
2023-04-02T12:28:35.074Z,0.70
2023-04-02T12:31:05.111Z,0.80
2023-04-02T12:33:32.636Z,0.70
2023-04-02T12:36:00.233Z,0.77
2023-04-02T12:38:27.733Z,1.12
2023-04-02T12:41:01.124Z,0.80
2023-04-02T12:43:28.679Z,1.00
2023-04-02T12:45:56.976Z,0.80
2023-04-02T12:48:24.487Z,1.00
2023-04-02T12:50:52.041Z,0.90
2023-04-02T12:53:19.600Z,1.00
2023-04-02T12:55:47.155Z,1.00
2023-04-02T12:58:39.290Z,0.90
2023-04-02T13:01:15.541Z,0.97
2023-04-02T13:03:43.073Z,1.13
2023-04-02T13:06:22.292Z,1.37
2023-04-02T13:08:49.813Z,1.40
2023-04-02T13:11:17.353Z,1.40
2023-04-02T13:13:45.641Z,1.33
2023-04-02T13:16:16.172Z,1.20
2023-04-02T13:18:43.657Z,1.10
2023-04-02T13:21:16.742Z,1.50
2023-04-02T13:23:44.278Z,1.27
2023-04-02T13:26:17.522Z,1.30
2023-04-02T13:29:05.995Z,1.60
2023-04-02T13:31:33.654Z,1.30
2023-04-02T13:34:01.073Z,1.40
2023-04-02T13:36:29.218Z,1.70
2023-04-02T13:38:56.665Z,1.47
2023-04-02T13:41:32.866Z,1.70
2023-04-02T13:44:00.463Z,1.70
2023-04-02T13:46:27.970Z,1.80
2023-04-02T13:48:55.499Z,1.70
2023-04-02T13:51:25.895Z,2.13
2023-04-02T13:53:55.756Z,1.90
2023-04-02T13:56:23.300Z,2.23
2023-04-02T13:58:51.165Z,1.80
2023-04-02T14:01:18.715Z,2.10
2023-04-02T14:03:46.208Z,2.20
2023-04-02T14:06:16.713Z,2.60
2023-04-02T14:09:02.390Z,2.20
2023-04-02T14:11:35.799Z,2.60
2023-04-02T14:14:09.387Z,2.97
2023-04-02T14:16:42.409Z,2.97
2023-04-02T14:19:36.780Z,3.27
2023-04-02T14:22:25.685Z,3.30
2023-04-02T14:25:05.088Z,3.57
2023-04-02T14:27:41.397Z,3.70
2023-04-02T14:30:17.911Z,3.50
2023-04-02T14:33:03.666Z,4.37
2023-04-02T14:35:36.665Z,4.30
2023-04-02T14:38:06.683Z,4.80
2023-04-02T14:40:39.619Z,4.43
2023-04-02T14:43:25.301Z,4.63
2023-04-02T14:46:02.127Z,4.90
2023-04-02T14:48:32.394Z,5.50
2023-04-02T14:51:05.530Z,5.13
2023-04-02T14:53:33.135Z,6.22
2023-04-02T14:56:00.667Z,5.53
2023-04-02T14:58:34.163Z,5.07
2023-04-02T15:01:07.231Z,5.47
2023-04-02T15:03:40.283Z,5.57
2023-04-02T15:06:07.782Z,5.33
2023-04-02T15:08:40.822Z,5.27
2023-04-02T15:11:08.770Z,6.13
2023-04-02T15:13:38.308Z,6.20
2023-04-02T15:16:10.971Z,5.63
2023-04-02T15:18:36.152Z,7.22
2023-04-02T15:21:24.231Z,6.03
2023-04-02T15:24:00.259Z,6.57
2023-04-02T15:27:09.256Z,5.43
2023-04-02T15:30:05.469Z,5.70
2023-04-02T15:32:33.828Z,6.40
2023-04-02T15:35:07.170Z,6.20
2023-04-02T15:37:40.675Z,6.03
2023-04-02T15:40:22.851Z,6.23
2023-04-02T15:42:59.697Z,6.23
2023-04-02T15:45:27.193Z,6.03
2023-04-02T15:48:03.394Z,6.10
2023-04-02T15:50:44.035Z,7.75
2023-04-02T15:53:25.399Z,6.57
2023-04-02T15:56:17.651Z,6.23
2023-04-02T15:59:09.079Z,6.10
2023-04-02T16:01:54.682Z,6.43
2023-04-02T16:04:49.660Z,7.23
2023-04-02T16:07:44.408Z,8.70
2023-04-02T16:10:41.247Z,6.83
2023-04-02T16:13:00.016Z,6.73
2023-04-02T16:15:27.534Z,6.50
2023-04-02T16:17:56.522Z,6.30
2023-04-02T16:20:32.772Z,7.50
2023-04-02T16:23:01.141Z,6.90
2023-04-02T16:25:27.823Z,9.00
2023-04-02T16:28:13.505Z,7.10
2023-04-02T16:30:43.985Z,7.90
2023-04-02T16:33:41.703Z,8.23
2023-04-02T16:36:17.807Z,8.17
2023-04-02T16:38:56.913Z,7.50
2023-04-02T16:41:42.565Z,7.73
2023-04-02T16:44:12.837Z,8.30
2023-04-02T16:46:40.943Z,7.90
2023-04-02T16:49:19.773Z,7.27
2023-04-02T16:51:55.802Z,7.57
2023-04-02T16:54:23.331Z,8.20
2023-04-02T16:57:20.982Z,7.43
2023-04-02T16:59:51.195Z,9.83
2023-04-02T17:02:45.828Z,8.30
2023-04-02T17:05:33.839Z,9.93
2023-04-02T17:08:10.657Z,8.00
2023-04-02T17:11:05.282Z,8.27
2023-04-02T17:13:47.744Z,8.17
2023-04-02T17:16:18.280Z,7.30
2023-04-02T17:18:45.773Z,7.97
2023-04-02T17:21:16.090Z,7.97
2023-04-02T17:23:55.209Z,8.17
2023-04-02T17:26:11.135Z,8.43
2023-04-02T17:28:38.709Z,9.53
2023-04-02T17:31:18.086Z,7.77
2023-04-02T17:33:45.583Z,10.30
2023-04-02T17:36:43.680Z,8.83
2023-04-02T17:39:25.814Z,10.60
2023-04-02T17:41:56.046Z,8.50
2023-04-02T17:44:44.498Z,9.03
2023-04-02T17:47:23.519Z,8.70
2023-04-02T17:50:00.192Z,7.67
2023-04-02T17:52:45.053Z,9.10
2023-04-02T17:55:41.179Z,10.07
2023-04-02T17:58:08.711Z,8.70
2023-04-02T18:00:39.328Z,9.65
2023-04-02T18:03:30.887Z,8.27
2023-04-02T18:06:01.309Z,8.30
2023-04-02T18:08:31.838Z,7.93
2023-04-02T18:11:22.882Z,8.60
2023-04-02T18:13:59.086Z,8.33
2023-04-02T18:16:35.408Z,8.60
2023-04-02T18:19:17.755Z,8.10
2023-04-02T18:21:45.256Z,9.27
2023-04-02T18:24:15.317Z,8.67
2023-04-02T18:26:54.389Z,9.40
2023-04-02T18:29:27.591Z,9.37
2023-04-02T18:32:00.650Z,10.00
2023-04-02T18:34:55.405Z,9.60
2023-04-02T18:37:22.970Z,10.17
2023-04-02T18:40:01.934Z,10.00
2023-04-02T18:43:05.432Z,10.00
2023-04-02T18:45:32.974Z,9.73
2023-04-02T18:48:27.546Z,9.37
2023-04-02T18:50:55.089Z,9.57
2023-04-02T18:53:22.620Z,9.57
2023-04-02T18:55:59.035Z,9.27
2023-04-02T18:58:29.313Z,9.03
2023-04-02T19:00:56.836Z,8.57
2023-04-02T19:03:27.575Z,8.17
2023-04-02T19:06:03.760Z,8.70
2023-04-02T19:08:43.173Z,7.70
2023-04-02T19:11:16.254Z,7.70
2023-04-02T19:13:43.775Z,7.70
2023-04-02T19:16:32.513Z,8.30
2023-04-02T19:19:08.512Z,7.20
2023-04-02T19:21:57.256Z,7.33
2023-04-02T19:24:39.324Z,7.10
2023-04-02T19:27:29.177Z,6.60
2023-04-02T19:30:17.364Z,7.67
2023-04-02T19:32:45.480Z,6.37
2023-04-02T19:35:27.889Z,5.53
2023-04-02T19:37:55.955Z,5.80
2023-04-02T19:40:29.392Z,5.90
2023-04-02T19:42:56.924Z,6.75
2023-04-02T19:45:39.423Z,4.67
2023-04-02T19:48:09.753Z,4.77
2023-04-02T19:50:37.163Z,4.57
2023-04-02T19:53:04.747Z,4.30
2023-04-02T19:55:32.283Z,4.47
2023-04-02T19:58:08.882Z,4.10
2023-04-02T20:00:27.453Z,4.20
2023-04-02T20:02:55.053Z,4.90
2023-04-02T20:05:22.541Z,4.82
2023-04-02T20:07:50.088Z,3.83
2023-04-02T20:10:17.630Z,4.00
2023-04-02T20:12:45.164Z,3.67
2023-04-02T20:15:13.027Z,3.77
2023-04-02T20:17:40.599Z,3.33
2023-04-02T20:20:08.250Z,3.70
2023-04-02T20:22:35.768Z,3.90
2023-04-02T20:25:03.319Z,3.63
2023-04-02T20:27:30.818Z,3.93
2023-04-02T20:29:58.403Z,3.40
2023-04-02T20:32:25.987Z,2.40
2023-04-02T20:34:53.474Z,1.70
2023-04-02T20:37:21.036Z,1.40
2023-04-02T20:39:48.562Z,1.40
2023-04-02T20:42:16.140Z,1.40
2023-04-02T20:44:43.724Z,1.60
2023-04-02T20:47:11.249Z,1.20
2023-04-02T20:49:38.790Z,1.30
2023-04-02T20:52:07.243Z,1.30
2023-04-02T20:54:34.767Z,1.43
2023-04-02T20:57:02.354Z,1.37
2023-04-02T20:59:29.918Z,1.77
2023-04-02T21:01:57.490Z,1.30
2023-04-02T21:04:25.038Z,1.80
2023-04-02T21:06:52.590Z,1.60
2023-04-02T21:09:20.112Z,1.50
2023-04-02T21:11:47.648Z,1.57
2023-04-02T21:14:16.108Z,1.80
2023-04-02T21:16:43.632Z,1.50
2023-04-02T21:19:11.177Z,1.60
2023-04-02T21:21:38.772Z,1.40
2023-04-02T21:24:06.627Z,1.40
2023-04-02T21:26:34.724Z,1.50
2023-04-02T21:29:01.721Z,1.50
2023-04-02T21:31:29.336Z,1.40
2023-04-02T21:33:56.796Z,1.30
2023-04-02T21:36:30.287Z,1.57
2023-04-02T21:38:57.891Z,1.50
2023-04-02T21:41:25.429Z,1.90
2023-04-02T21:43:52.961Z,1.50
2023-04-02T21:46:20.593Z,1.47
2023-04-02T21:48:48.081Z,1.27
2023-04-02T21:51:15.603Z,1.70
2023-04-02T21:53:43.432Z,1.70
2023-04-02T21:56:13.688Z,1.57
2023-04-02T21:58:41.222Z,1.67
2023-04-02T22:01:16.917Z,1.47
2023-04-02T22:03:37.501Z,1.70
2023-04-02T22:06:07.476Z,1.80
2023-04-02T22:08:35.034Z,1.70
2023-04-02T22:11:05.565Z,1.40
2023-04-02T22:13:33.087Z,1.60
2023-04-02T22:16:04.995Z,1.83
2023-04-02T22:18:31.160Z,1.40
2023-04-02T22:20:58.686Z,1.67
2023-04-02T22:23:26.271Z,1.40
2023-04-02T22:25:53.784Z,1.63
2023-04-02T22:28:21.312Z,1.80
2023-04-02T22:30:48.962Z,1.40
2023-04-02T22:33:16.430Z,1.90
2023-04-02T22:35:43.999Z,1.90
2023-04-02T22:38:11.534Z,1.53
2023-04-02T22:40:39.089Z,1.70
2023-04-02T22:43:06.603Z,1.50
2023-04-02T22:45:34.178Z,1.93
2023-04-02T22:48:01.774Z,2.10
2023-04-02T22:50:29.225Z,1.70
2023-04-02T22:52:56.816Z,1.57
2023-04-02T22:55:24.340Z,1.87
2023-04-02T22:57:51.868Z,1.80
2023-04-02T23:00:19.431Z,1.67
2023-04-02T23:02:47.058Z,1.60
2023-04-02T23:05:14.550Z,1.75
2023-04-02T23:07:42.072Z,1.70
2023-04-02T23:10:09.574Z,1.50
2023-04-02T23:12:37.109Z,1.80
2023-04-02T23:15:04.688Z,1.10
2023-04-02T23:17:32.266Z,1.17
2023-04-02T23:19:59.743Z,1.27
2023-04-02T23:22:27.369Z,1.23
2023-04-02T23:24:54.921Z,1.23
2023-04-02T23:27:22.428Z,1.43
2023-04-02T23:29:51.167Z,1.40
2023-04-02T23:32:18.698Z,1.37
2023-04-02T23:34:46.262Z,1.33
2023-04-02T23:37:13.818Z,1.40
2023-04-02T23:39:41.344Z,1.50
2023-04-02T23:42:08.878Z,1.20
2023-04-02T23:44:36.441Z,1.30
2023-04-02T23:47:04.026Z,1.33
2023-04-02T23:49:31.487Z,1.43
2023-04-02T23:51:59.044Z,1.87
2023-04-02T23:54:26.602Z,1.60
2023-04-02T23:56:54.164Z,1.60
2023-04-02T23:59:21.724Z,1.50
